Hlavní strana
METAR-TAF:

METAR-TAF

Letiště :

Bělgorod, Rusko

zeměpisná šířka: 50-38-36N, zeměpisná délka: 036-35-24E, výška: 224 m

Aktuální stav počasí

Zpráva byla vytvořena před 15 minutami, v 14:30 UTC
Jihojihovýchodní vítr 12 kt
Teplota 9°C
Vlhkost vzduchu 87%
Tlak 1005 hPa
Viditelnost: 9000 m
Oblačno až skoro zataženo ve výšce 1400 ft, Cumulonimbus.
slabé dešťové přeháňky

METAR: UUOB 241430Z 16006MPS 9000 -SHRA BKN014CB 09/07 Q1005 R11/290055 NOSIG

Čas: 17:45 (14:45 UTC)

Předpověď počasí

Zpráva byla vytvořena před 45 minutami, v 14:00 UTC
Předpověď platná od 24 v 15 UTC do 24 v 24 UTC
Jižní vítr 12 kt s nárazy do 21 kt
Viditelnost 10 km a více
Oblačno až skoro zataženo ve výšce 2000 ft, Cumulonimbus.
Dočasný
od 24 v 18 UTC do 24 v 24 UTC
Viditelnost: 3000 m
Oblačno až skoro zataženo ve výšce 1000 ft, Cumulonimbus.
slabé dešťové přeháňky

TAF: UUOB 241400Z 2415/2424 18006G11MPS 9999 BKN020CB TEMPO 2418/2424 3000 -SHRA BKN010CB

Stav a předpovědi počasí z více než 4 000 letišť (zprávy METAR a TAF).

Červené a žluté tečky na mapě představují dostupné meteorologické stanice.

Když kurzor umístíte na tečku, zobrazí se název stanice.

Pak kliknutím zobrazíte stav a předpověď počasí.

Chcete-li změnit mapu, kliknutím na zelené tlačítko se znaménkem +mapu přiblížíte, kliknutím na zelené tlačítko se znaménkem – mapu oddálíte a kliknutím na zelené šipky přejdete na sousední mapy.


METAR-TAF: